sensor_id;sensor_type;location;lat;lon;timestamp;temperature;humidity
75357;HTU21D;63946;51.986;5.930;2023-05-28T07:12:02;18.02;55.72
75357;HTU21D;63946;51.986;5.930;2023-05-28T07:14:34;18.28;55.16
75357;HTU21D;63946;51.986;5.930;2023-05-28T07:17:03;18.59;54.39
75357;HTU21D;63946;51.986;5.930;2023-05-28T07:19:32;18.92;54.01
75357;HTU21D;63946;51.986;5.930;2023-05-28T07:22:02;19.17;53.31
75357;HTU21D;63946;51.986;5.930;2023-05-28T07:24:31;19.40;52.38
75357;HTU21D;63946;51.986;5.930;2023-05-28T07:27:00;19.54;51.64
75357;HTU21D;63946;51.986;5.930;2023-05-28T07:29:29;19.55;51.11
75357;HTU21D;63946;51.986;5.930;2023-05-28T07:31:58;19.61;50.69
75357;HTU21D;63946;51.986;5.930;2023-05-28T07:34:27;19.74;50.51
75357;HTU21D;63946;51.986;5.930;2023-05-28T07:36:57;19.89;50.19
75357;HTU21D;63946;51.986;5.930;2023-05-28T07:39:26;20.10;50.12
75357;HTU21D;63946;51.986;5.930;2023-05-28T07:41:55;20.36;49.72
75357;HTU21D;63946;51.986;5.930;2023-05-28T07:44:30;20.61;49.04
75357;HTU21D;63946;51.986;5.930;2023-05-28T07:46:59;20.70;48.18
75357;HTU21D;63946;51.986;5.930;2023-05-28T07:50:03;20.81;48.02
75357;HTU21D;63946;51.986;5.930;2023-05-28T07:52:58;21.20;47.48
75357;HTU21D;63946;51.986;5.930;2023-05-28T07:55:27;21.45;46.46
75357;HTU21D;63946;51.986;5.930;2023-05-28T07:57:58;21.57;45.92
75357;HTU21D;63946;51.986;5.930;2023-05-28T08:00:29;21.65;45.54
75357;HTU21D;63946;51.986;5.930;2023-05-28T08:03:03;21.74;44.72
75357;HTU21D;63946;51.986;5.930;2023-05-28T08:05:45;21.84;44.63
75357;HTU21D;63946;51.986;5.930;2023-05-28T08:08:13;21.96;43.37
75357;HTU21D;63946;51.986;5.930;2023-05-28T08:10:43;21.87;43.13
75357;HTU21D;63946;51.986;5.930;2023-05-28T08:13:13;21.80;43.19
75357;HTU21D;63946;51.986;5.930;2023-05-28T08:15:42;22.04;43.20
75357;HTU21D;63946;51.986;5.930;2023-05-28T08:18:13;22.16;42.22
75357;HTU21D;63946;51.986;5.930;2023-05-28T08:20:45;22.19;41.55
75357;HTU21D;63946;51.986;5.930;2023-05-28T08:23:21;22.12;41.54
75357;HTU21D;63946;51.986;5.930;2023-05-28T08:25:52;21.98;42.21
75357;HTU21D;63946;51.986;5.930;2023-05-28T08:28:27;22.03;41.85
75357;HTU21D;63946;51.986;5.930;2023-05-28T08:30:58;21.95;41.29
75357;HTU21D;63946;51.986;5.930;2023-05-28T08:33:54;21.99;41.79
75357;HTU21D;63946;51.986;5.930;2023-05-28T08:36:23;22.26;41.42
75357;HTU21D;63946;51.986;5.930;2023-05-28T08:38:54;22.23;40.78
75357;HTU21D;63946;51.986;5.930;2023-05-28T08:41:27;22.21;40.49
75357;HTU21D;63946;51.986;5.930;2023-05-28T08:43:56;22.22;40.52
75357;HTU21D;63946;51.986;5.930;2023-05-28T08:46:28;22.42;40.59
75357;HTU21D;63946;51.986;5.930;2023-05-28T08:49:18;22.65;40.05
75357;HTU21D;63946;51.986;5.930;2023-05-28T08:51:49;22.65;39.71
75357;HTU21D;63946;51.986;5.930;2023-05-28T08:54:25;22.69;39.41
75357;HTU21D;63946;51.986;5.930;2023-05-28T08:56:55;22.75;39.44
75357;HTU21D;63946;51.986;5.930;2023-05-28T08:59:32;22.69;38.88
75357;HTU21D;63946;51.986;5.930;2023-05-28T09:02:03;22.52;39.10
75357;HTU21D;63946;51.986;5.930;2023-05-28T09:04:32;22.43;39.54
75357;HTU21D;63946;51.986;5.930;2023-05-28T09:07:01;22.58;40.08
75357;HTU21D;63946;51.986;5.930;2023-05-28T09:09:39;22.80;40.08
75357;HTU21D;63946;51.986;5.930;2023-05-28T09:12:12;22.91;39.88
75357;HTU21D;63946;51.986;5.930;2023-05-28T09:14:45;22.91;39.77
75357;HTU21D;63946;51.986;5.930;2023-05-28T09:17:14;22.97;39.65
75357;HTU21D;63946;51.986;5.930;2023-05-28T09:19:50;23.00;38.99
75357;HTU21D;63946;51.986;5.930;2023-05-28T09:22:20;23.00;38.68
75357;HTU21D;63946;51.986;5.930;2023-05-28T09:25:00;23.03;38.36
75357;HTU21D;63946;51.986;5.930;2023-05-28T09:27:48;23.11;38.53
75357;HTU21D;63946;51.986;5.930;2023-05-28T09:30:18;23.20;38.78
75357;HTU21D;63946;51.986;5.930;2023-05-28T09:33:01;23.36;38.44
75357;HTU21D;63946;51.986;5.930;2023-05-28T09:35:31;23.53;37.80
75357;HTU21D;63946;51.986;5.930;2023-05-28T09:38:01;23.59;37.40
75357;HTU21D;63946;51.986;5.930;2023-05-28T09:40:30;23.65;37.24
75357;HTU21D;63946;51.986;5.930;2023-05-28T09:43:03;23.74;36.29
75357;HTU21D;63946;51.986;5.930;2023-05-28T09:45:33;23.68;36.79
75357;HTU21D;63946;51.986;5.930;2023-05-28T09:48:03;23.69;36.24
75357;HTU21D;63946;51.986;5.930;2023-05-28T09:50:32;23.68;36.38
75357;HTU21D;63946;51.986;5.930;2023-05-28T09:53:03;23.65;36.28
75357;HTU21D;63946;51.986;5.930;2023-05-28T09:55:36;23.34;36.98
75357;HTU21D;63946;51.986;5.930;2023-05-28T09:58:06;23.44;37.50
75357;HTU21D;63946;51.986;5.930;2023-05-28T10:00:41;23.49;37.32
75357;HTU21D;63946;51.986;5.930;2023-05-28T10:03:18;23.36;37.86
75357;HTU21D;63946;51.986;5.930;2023-05-28T10:05:59;23.35;38.59
75357;HTU21D;63946;51.986;5.930;2023-05-28T10:08:30;23.27;38.99
75357;HTU21D;63946;51.986;5.930;2023-05-28T10:11:09;23.07;39.27
75357;HTU21D;63946;51.986;5.930;2023-05-28T10:13:39;22.99;39.10
75357;HTU21D;63946;51.986;5.930;2023-05-28T10:16:12;22.81;39.44
75357;HTU21D;63946;51.986;5.930;2023-05-28T10:18:43;22.67;39.88
75357;HTU21D;63946;51.986;5.930;2023-05-28T10:21:12;22.46;39.85
75357;HTU21D;63946;51.986;5.930;2023-05-28T10:23:43;22.41;40.19
75357;HTU21D;63946;51.986;5.930;2023-05-28T10:26:14;22.37;40.73
75357;HTU21D;63946;51.986;5.930;2023-05-28T10:28:44;22.49;40.55
75357;HTU21D;63946;51.986;5.930;2023-05-28T10:31:12;22.61;40.50
75357;HTU21D;63946;51.986;5.930;2023-05-28T10:33:42;22.84;40.67
75357;HTU21D;63946;51.986;5.930;2023-05-28T10:36:13;23.03;39.91
75357;HTU21D;63946;51.986;5.930;2023-05-28T10:41:20;23.21;39.23
75357;HTU21D;63946;51.986;5.930;2023-05-28T10:43:50;23.35;39.41
75357;HTU21D;63946;51.986;5.930;2023-05-28T10:49:14;23.37;38.61
75357;HTU21D;63946;51.986;5.930;2023-05-28T10:51:50;23.39;38.56
75357;HTU21D;63946;51.986;5.930;2023-05-28T10:54:40;23.41;38.63
75357;HTU21D;63946;51.986;5.930;2023-05-28T11:00:00;23.29;38.69
75357;HTU21D;63946;51.986;5.930;2023-05-28T11:02:34;23.39;38.91
75357;HTU21D;63946;51.986;5.930;2023-05-28T11:05:03;23.38;38.56
75357;HTU21D;63946;51.986;5.930;2023-05-28T11:07:37;23.26;38.39
75357;HTU21D;63946;51.986;5.930;2023-05-28T11:10:11;23.15;38.67
75357;HTU21D;63946;51.986;5.930;2023-05-28T11:12:41;23.11;38.98
75357;HTU21D;63946;51.986;5.930;2023-05-28T11:15:12;23.17;39.10
75357;HTU21D;63946;51.986;5.930;2023-05-28T11:17:45;23.36;39.05
75357;HTU21D;63946;51.986;5.930;2023-05-28T11:20:23;23.42;39.14
75357;HTU21D;63946;51.986;5.930;2023-05-28T11:22:54;23.43;38.91
75357;HTU21D;63946;51.986;5.930;2023-05-28T11:25:23;23.35;38.57
75357;HTU21D;63946;51.986;5.930;2023-05-28T11:27:53;23.29;38.20
75357;HTU21D;63946;51.986;5.930;2023-05-28T11:30:24;23.27;38.11
75357;HTU21D;63946;51.986;5.930;2023-05-28T11:32:54;23.30;38.14
75357;HTU21D;63946;51.986;5.930;2023-05-28T11:35:25;23.43;37.73
75357;HTU21D;63946;51.986;5.930;2023-05-28T11:37:58;23.56;36.92
75357;HTU21D;63946;51.986;5.930;2023-05-28T11:40:33;23.68;36.61
75357;HTU21D;63946;51.986;5.930;2023-05-28T11:43:02;23.88;36.88
75357;HTU21D;63946;51.986;5.930;2023-05-28T11:45:36;24.26;36.14
75357;HTU21D;63946;51.986;5.930;2023-05-28T11:48:17;24.58;35.28
75357;HTU21D;63946;51.986;5.930;2023-05-28T11:50:46;24.73;34.47
75357;HTU21D;63946;51.986;5.930;2023-05-28T11:53:15;24.98;34.70
75357;HTU21D;63946;51.986;5.930;2023-05-28T11:55:46;25.10;33.82
75357;HTU21D;63946;51.986;5.930;2023-05-28T11:58:15;24.94;34.08
75357;HTU21D;63946;51.986;5.930;2023-05-28T12:00:44;24.86;34.15
75357;HTU21D;63946;51.986;5.930;2023-05-28T12:03:13;24.65;33.62
75357;HTU21D;63946;51.986;5.930;2023-05-28T12:05:42;24.50;34.00
75357;HTU21D;63946;51.986;5.930;2023-05-28T12:08:11;24.56;34.08
75357;HTU21D;63946;51.986;5.930;2023-05-28T12:10:40;24.61;34.11
75357;HTU21D;63946;51.986;5.930;2023-05-28T12:13:12;24.69;34.18
75357;HTU21D;63946;51.986;5.930;2023-05-28T12:15:41;24.82;34.28
75357;HTU21D;63946;51.986;5.930;2023-05-28T12:18:09;24.72;33.95
75357;HTU21D;63946;51.986;5.930;2023-05-28T12:20:42;24.49;34.18
75357;HTU21D;63946;51.986;5.930;2023-05-28T12:23:12;24.43;34.31
75357;HTU21D;63946;51.986;5.930;2023-05-28T12:28:14;23.97;34.99
75357;HTU21D;63946;51.986;5.930;2023-05-28T12:30:44;23.97;35.08
75357;HTU21D;63946;51.986;5.930;2023-05-28T12:33:15;24.08;34.99
75357;HTU21D;63946;51.986;5.930;2023-05-28T12:35:43;24.04;34.73
75357;HTU21D;63946;51.986;5.930;2023-05-28T12:38:13;23.98;34.70
75357;HTU21D;63946;51.986;5.930;2023-05-28T12:40:41;23.97;34.37
75357;HTU21D;63946;51.986;5.930;2023-05-28T12:43:10;24.00;34.31
75357;HTU21D;63946;51.986;5.930;2023-05-28T12:45:39;24.06;34.37
75357;HTU21D;63946;51.986;5.930;2023-05-28T12:48:07;24.14;34.41
75357;HTU21D;63946;51.986;5.930;2023-05-28T12:50:36;24.10;34.26
75357;HTU21D;63946;51.986;5.930;2023-05-28T12:53:05;24.05;34.60
75357;HTU21D;63946;51.986;5.930;2023-05-28T12:55:33;24.14;34.70
75357;HTU21D;63946;51.986;5.930;2023-05-28T12:58:02;24.24;34.51
75357;HTU21D;63946;51.986;5.930;2023-05-28T13:00:31;24.17;34.03
75357;HTU21D;63946;51.986;5.930;2023-05-28T13:03:00;24.02;34.06
75357;HTU21D;63946;51.986;5.930;2023-05-28T13:05:29;24.02;34.28
75357;HTU21D;63946;51.986;5.930;2023-05-28T13:08:01;24.08;33.96
75357;HTU21D;63946;51.986;5.930;2023-05-28T13:10:29;24.01;34.47
75357;HTU21D;63946;51.986;5.930;2023-05-28T13:12:58;24.10;34.25
75357;HTU21D;63946;51.986;5.930;2023-05-28T13:15:29;24.09;33.89
75357;HTU21D;63946;51.986;5.930;2023-05-28T13:17:58;23.99;34.31
75357;HTU21D;63946;51.986;5.930;2023-05-28T13:20:27;24.17;34.79
75357;HTU21D;63946;51.986;5.930;2023-05-28T13:22:55;24.33;34.31
75357;HTU21D;63946;51.986;5.930;2023-05-28T13:25:24;24.33;34.00
75357;HTU21D;63946;51.986;5.930;2023-05-28T13:27:53;24.33;33.96
75357;HTU21D;63946;51.986;5.930;2023-05-28T13:30:21;24.24;33.90
75357;HTU21D;63946;51.986;5.930;2023-05-28T13:32:59;24.11;33.79
75357;HTU21D;63946;51.986;5.930;2023-05-28T13:35:28;23.99;34.08
75357;HTU21D;63946;51.986;5.930;2023-05-28T13:37:59;24.13;34.03
75357;HTU21D;63946;51.986;5.930;2023-05-28T13:40:28;24.14;34.02
75357;HTU21D;63946;51.986;5.930;2023-05-28T13:42:58;24.11;33.83
75357;HTU21D;63946;51.986;5.930;2023-05-28T13:45:27;24.09;33.78
75357;HTU21D;63946;51.986;5.930;2023-05-28T13:47:57;24.08;33.88
75357;HTU21D;63946;51.986;5.930;2023-05-28T13:50:25;24.12;33.66
75357;HTU21D;63946;51.986;5.930;2023-05-28T13:52:56;24.30;33.57
75357;HTU21D;63946;51.986;5.930;2023-05-28T13:55:24;24.50;32.63
75357;HTU21D;63946;51.986;5.930;2023-05-28T13:57:56;24.47;32.80
75357;HTU21D;63946;51.986;5.930;2023-05-28T14:00:28;24.55;32.78
75357;HTU21D;63946;51.986;5.930;2023-05-28T14:02:57;24.63;32.80
75357;HTU21D;63946;51.986;5.930;2023-05-28T14:05:25;24.62;32.57
75357;HTU21D;63946;51.986;5.930;2023-05-28T14:07:54;24.48;32.62
75357;HTU21D;63946;51.986;5.930;2023-05-28T14:10:22;24.49;32.88
75357;HTU21D;63946;51.986;5.930;2023-05-28T14:12:51;24.51;32.92
75357;HTU21D;63946;51.986;5.930;2023-05-28T14:15:20;24.57;32.93
75357;HTU21D;63946;51.986;5.930;2023-05-28T14:17:50;24.73;33.09
75357;HTU21D;63946;51.986;5.930;2023-05-28T14:20:18;24.73;32.66
75357;HTU21D;63946;51.986;5.930;2023-05-28T14:22:47;24.55;32.60
75357;HTU21D;63946;51.986;5.930;2023-05-28T14:25:16;24.38;33.13
75357;HTU21D;63946;51.986;5.930;2023-05-28T14:27:44;24.31;33.38
75357;HTU21D;63946;51.986;5.930;2023-05-28T14:30:13;24.33;33.19
75357;HTU21D;63946;51.986;5.930;2023-05-28T14:32:41;24.38;33.03
75357;HTU21D;63946;51.986;5.930;2023-05-28T14:35:10;24.34;32.63
75357;HTU21D;63946;51.986;5.930;2023-05-28T14:37:39;24.32;32.76
75357;HTU21D;63946;51.986;5.930;2023-05-28T14:40:08;24.45;33.05
75357;HTU21D;63946;51.986;5.930;2023-05-28T14:42:37;24.61;32.35
75357;HTU21D;63946;51.986;5.930;2023-05-28T14:45:06;24.43;32.35
75357;HTU21D;63946;51.986;5.930;2023-05-28T14:47:35;24.30;32.45
75357;HTU21D;63946;51.986;5.930;2023-05-28T14:50:04;24.27;32.73
75357;HTU21D;63946;51.986;5.930;2023-05-28T14:52:33;24.31;32.83
75357;HTU21D;63946;51.986;5.930;2023-05-28T14:55:02;24.29;32.91
75357;HTU21D;63946;51.986;5.930;2023-05-28T14:57:31;24.27;33.08
75357;HTU21D;63946;51.986;5.930;2023-05-28T15:00:03;24.25;33.20
75357;HTU21D;63946;51.986;5.930;2023-05-28T15:02:34;24.28;33.22
75357;HTU21D;63946;51.986;5.930;2023-05-28T15:05:03;24.28;33.17
75357;HTU21D;63946;51.986;5.930;2023-05-28T15:07:33;24.30;33.00
75357;HTU21D;63946;51.986;5.930;2023-05-28T15:10:01;24.33;33.05
75357;HTU21D;63946;51.986;5.930;2023-05-28T15:12:31;24.39;32.35
75357;HTU21D;63946;51.986;5.930;2023-05-28T15:14:59;24.28;32.41
75357;HTU21D;63946;51.986;5.930;2023-05-28T15:17:29;24.31;32.24
75357;HTU21D;63946;51.986;5.930;2023-05-28T15:19:58;24.38;31.93
75357;HTU21D;63946;51.986;5.930;2023-05-28T15:22:26;24.39;32.07
75357;HTU21D;63946;51.986;5.930;2023-05-28T15:24:58;24.40;32.16
75357;HTU21D;63946;51.986;5.930;2023-05-28T15:27:26;24.42;32.35
75357;HTU21D;63946;51.986;5.930;2023-05-28T15:29:56;24.45;32.15
75357;HTU21D;63946;51.986;5.930;2023-05-28T15:32:34;24.47;32.23
75357;HTU21D;63946;51.986;5.930;2023-05-28T15:35:04;24.61;31.96
75357;HTU21D;63946;51.986;5.930;2023-05-28T15:37:33;24.63;31.83
75357;HTU21D;63946;51.986;5.930;2023-05-28T15:40:03;24.57;31.91
75357;HTU21D;63946;51.986;5.930;2023-05-28T15:42:34;24.55;31.59
75357;HTU21D;63946;51.986;5.930;2023-05-28T15:45:03;24.51;31.51
75357;HTU21D;63946;51.986;5.930;2023-05-28T15:47:35;24.47;31.22
75357;HTU21D;63946;51.986;5.930;2023-05-28T15:50:06;24.48;31.31
75357;HTU21D;63946;51.986;5.930;2023-05-28T15:52:35;24.51;31.17
75357;HTU21D;63946;51.986;5.930;2023-05-28T15:55:04;24.40;31.03
75357;HTU21D;63946;51.986;5.930;2023-05-28T15:57:35;24.20;31.03
75357;HTU21D;63946;51.986;5.930;2023-05-28T16:00:04;24.09;31.06
75357;HTU21D;63946;51.986;5.930;2023-05-28T16:02:37;23.99;31.21
75357;HTU21D;63946;51.986;5.930;2023-05-28T16:05:09;23.85;31.19
75357;HTU21D;63946;51.986;5.930;2023-05-28T16:07:38;23.80;31.29
75357;HTU21D;63946;51.986;5.930;2023-05-28T16:10:07;23.82;31.46
75357;HTU21D;63946;51.986;5.930;2023-05-28T16:12:38;23.84;31.34
75357;HTU21D;63946;51.986;5.930;2023-05-28T16:15:07;23.89;30.99
75357;HTU21D;63946;51.986;5.930;2023-05-28T16:17:37;23.91;30.93
75357;HTU21D;63946;51.986;5.930;2023-05-28T16:20:08;23.91;30.85
75357;HTU21D;63946;51.986;5.930;2023-05-28T16:22:39;23.86;31.26
75357;HTU21D;63946;51.986;5.930;2023-05-28T16:25:08;23.82;30.67
75357;HTU21D;63946;51.986;5.930;2023-05-28T16:27:38;23.69;30.40
75357;HTU21D;63946;51.986;5.930;2023-05-28T16:30:07;23.68;29.82
75357;HTU21D;63946;51.986;5.930;2023-05-28T16:32:36;23.61;29.87
75357;HTU21D;63946;51.986;5.930;2023-05-28T16:35:06;23.61;29.65
75357;HTU21D;63946;51.986;5.930;2023-05-28T16:37:38;23.56;29.72
75357;HTU21D;63946;51.986;5.930;2023-05-28T16:40:07;23.53;29.52
75357;HTU21D;63946;51.986;5.930;2023-05-28T16:42:37;23.52;29.47
75357;HTU21D;63946;51.986;5.930;2023-05-28T16:45:11;23.45;29.24
75357;HTU21D;63946;51.986;5.930;2023-05-28T16:47:40;23.42;29.13
75357;HTU21D;63946;51.986;5.930;2023-05-28T16:50:11;23.40;29.06
75357;HTU21D;63946;51.986;5.930;2023-05-28T16:52:42;23.45;29.24
75357;HTU21D;63946;51.986;5.930;2023-05-28T16:55:15;23.52;28.61
75357;HTU21D;63946;51.986;5.930;2023-05-28T16:57:53;23.43;28.26
75357;HTU21D;63946;51.986;5.930;2023-05-28T17:00:22;23.41;28.55
75357;HTU21D;63946;51.986;5.930;2023-05-28T17:02:50;23.39;28.09
75357;HTU21D;63946;51.986;5.930;2023-05-28T17:05:19;23.29;27.68
75357;HTU21D;63946;51.986;5.930;2023-05-28T17:07:51;23.23;27.90
75357;HTU21D;63946;51.986;5.930;2023-05-28T17:10:20;23.15;28.25
75357;HTU21D;63946;51.986;5.930;2023-05-28T17:12:48;23.13;27.91
75357;HTU21D;63946;51.986;5.930;2023-05-28T17:15:17;23.11;27.81
75357;HTU21D;63946;51.986;5.930;2023-05-28T17:17:46;23.08;27.38
75357;HTU21D;63946;51.986;5.930;2023-05-28T17:20:18;23.01;27.23
75357;HTU21D;63946;51.986;5.930;2023-05-28T17:22:50;22.98;27.00
75357;HTU21D;63946;51.986;5.930;2023-05-28T17:25:20;22.91;27.00
75357;HTU21D;63946;51.986;5.930;2023-05-28T17:27:49;22.87;27.45
75357;HTU21D;63946;51.986;5.930;2023-05-28T17:30:27;22.88;28.77
75357;HTU21D;63946;51.986;5.930;2023-05-28T17:32:56;22.83;30.77
75357;HTU21D;63946;51.986;5.930;2023-05-28T17:35:24;22.72;32.73
75357;HTU21D;63946;51.986;5.930;2023-05-28T17:37:55;22.61;34.28
75357;HTU21D;63946;51.986;5.930;2023-05-28T17:40:25;22.50;35.49
75357;HTU21D;63946;51.986;5.930;2023-05-28T17:42:53;22.35;36.53
75357;HTU21D;63946;51.986;5.930;2023-05-28T17:45:23;22.20;37.24
75357;HTU21D;63946;51.986;5.930;2023-05-28T17:47:51;22.18;37.53
75357;HTU21D;63946;51.986;5.930;2023-05-28T17:50:20;22.12;38.08
75357;HTU21D;63946;51.986;5.930;2023-05-28T17:52:54;22.02;38.60
75357;HTU21D;63946;51.986;5.930;2023-05-28T17:55:26;21.90;39.25
75357;HTU21D;63946;51.986;5.930;2023-05-28T17:57:57;21.77;39.57
75357;HTU21D;63946;51.986;5.930;2023-05-28T18:00:29;21.74;39.61
75357;HTU21D;63946;51.986;5.930;2023-05-28T18:03:01;21.61;39.88
75357;HTU21D;63946;51.986;5.930;2023-05-28T18:05:32;21.43;40.20
75357;HTU21D;63946;51.986;5.930;2023-05-28T18:08:03;21.29;40.52
75357;HTU21D;63946;51.986;5.930;2023-05-28T18:10:34;21.19;40.72
75357;HTU21D;63946;51.986;5.930;2023-05-28T18:13:08;21.16;40.72
75357;HTU21D;63946;51.986;5.930;2023-05-28T18:15:39;21.17;40.69
75357;HTU21D;63946;51.986;5.930;2023-05-28T18:18:16;21.07;40.75
75357;HTU21D;63946;51.986;5.930;2023-05-28T18:20:47;20.99;40.73
75357;HTU21D;63946;51.986;5.930;2023-05-28T18:23:19;20.85;40.86
75357;HTU21D;63946;51.986;5.930;2023-05-28T18:25:47;20.73;40.81
75357;HTU21D;63946;51.986;5.930;2023-05-28T18:28:22;20.60;41.01
75357;HTU21D;63946;51.986;5.930;2023-05-28T18:30:51;20.48;41.13
75357;HTU21D;63946;51.986;5.930;2023-05-28T18:33:20;20.37;41.32
75357;HTU21D;63946;51.986;5.930;2023-05-28T18:35:48;20.33;41.48
75357;HTU21D;63946;51.986;5.930;2023-05-28T18:38:17;20.32;41.54
75357;HTU21D;63946;51.986;5.930;2023-05-28T18:40:49;20.32;41.65
75357;HTU21D;63946;51.986;5.930;2023-05-28T18:43:19;20.21;42.12
75357;HTU21D;63946;51.986;5.930;2023-05-28T18:45:48;20.09;42.05
75357;HTU21D;63946;51.986;5.930;2023-05-28T18:48:17;19.96;42.77
75357;HTU21D;63946;51.986;5.930;2023-05-28T18:51:02;19.84;43.32
75357;HTU21D;63946;51.986;5.930;2023-05-28T18:53:37;19.80;43.58
75357;HTU21D;63946;51.986;5.930;2023-05-28T18:56:08;19.71;43.84
75357;HTU21D;63946;51.986;5.930;2023-05-28T18:58:39;19.67;44.35
75357;HTU21D;63946;51.986;5.930;2023-05-28T19:01:08;19.56;44.73
75357;HTU21D;63946;51.986;5.930;2023-05-28T19:03:45;19.51;45.01
75357;HTU21D;63946;51.986;5.930;2023-05-28T19:06:17;19.41;45.55
75357;HTU21D;63946;51.986;5.930;2023-05-28T19:08:47;19.31;45.93
75357;HTU21D;63946;51.986;5.930;2023-05-28T19:11:24;19.18;46.30
75357;HTU21D;63946;51.986;5.930;2023-05-28T19:13:55;19.12;46.66
75357;HTU21D;63946;51.986;5.930;2023-05-28T19:16:26;19.03;47.02
75357;HTU21D;63946;51.986;5.930;2023-05-28T19:18:57;19.00;47.29
75357;HTU21D;63946;51.986;5.930;2023-05-28T19:21:27;18.92;47.64
75357;HTU21D;63946;51.986;5.930;2023-05-28T19:23:56;18.78;48.18
75357;HTU21D;63946;51.986;5.930;2023-05-28T19:26:25;18.66;48.53
75357;HTU21D;63946;51.986;5.930;2023-05-28T19:28:56;18.59;48.75
75357;HTU21D;63946;51.986;5.930;2023-05-28T19:31:27;18.53;49.02
75357;HTU21D;63946;51.986;5.930;2023-05-28T19:33:56;18.41;49.21
75357;HTU21D;63946;51.986;5.930;2023-05-28T19:36:25;18.32;49.57
75357;HTU21D;63946;51.986;5.930;2023-05-28T19:38:55;18.21;49.93
75357;HTU21D;63946;51.986;5.930;2023-05-28T19:41:24;18.15;50.06
75357;HTU21D;63946;51.986;5.930;2023-05-28T19:43:53;18.08;50.08
75357;HTU21D;63946;51.986;5.930;2023-05-28T19:46:22;18.08;50.20
